sensor_id;sensor_type;location;lat;lon;timestamp;pressure;altitude;pressure_sealevel;temperature;humidity
71504;BME280;59323;50.874;7.028;2023-12-22T03:28:10;99889.59;;;4.98;100.00
71504;BME280;59323;50.874;7.028;2023-12-22T03:31:17;99884.91;;;4.95;100.00
71504;BME280;59323;50.874;7.028;2023-12-22T03:33:49;99880.22;;;4.92;100.00
71504;BME280;59323;50.874;7.028;2023-12-22T03:36:15;99892.56;;;4.93;100.00
71504;BME280;59323;50.874;7.028;2023-12-22T03:39:00;99905.75;;;4.98;100.00
71504;BME280;59323;50.874;7.028;2023-12-22T03:41:50;99895.78;;;4.98;100.00
71504;BME280;59323;50.874;7.028;2023-12-22T03:44:32;99895.34;;;4.96;100.00
71504;BME280;59323;50.874;7.028;2023-12-22T03:47:17;99882.66;;;4.97;100.00
71504;BME280;59323;50.874;7.028;2023-12-22T03:50:06;99886.81;;;4.94;100.00
71504;BME280;59323;50.874;7.028;2023-12-22T05:53:40;99972.97;;;6.78;100.00
71504;BME280;59323;50.874;7.028;2023-12-22T06:42:32;99979.97;;;7.02;100.00
71504;BME280;59323;50.874;7.028;2023-12-22T06:57:38;100004.56;;;7.16;100.00
71504;BME280;59323;50.874;7.028;2023-12-22T07:07:36;99975.53;;;6.71;100.00
71504;BME280;59323;50.874;7.028;2023-12-22T07:10:01;99985.00;;;6.61;100.00
71504;BME280;59323;50.874;7.028;2023-12-22T07:12:27;100004.25;;;6.60;100.00
71504;BME280;59323;50.874;7.028;2023-12-22T07:14:53;99997.72;;;6.61;100.00
71504;BME280;59323;50.874;7.028;2023-12-22T07:17:19;99997.28;;;6.59;100.00
71504;BME280;59323;50.874;7.028;2023-12-22T07:19:44;99999.97;;;6.59;100.00
71504;BME280;59323;50.874;7.028;2023-12-22T07:22:09;99997.91;;;6.52;100.00
71504;BME280;59323;50.874;7.028;2023-12-22T07:24:35;99996.09;;;6.41;100.00
71504;BME280;59323;50.874;7.028;2023-12-22T07:27:00;100007.59;;;6.38;100.00
71504;BME280;59323;50.874;7.028;2023-12-22T07:29:26;100000.16;;;6.31;100.00
71504;BME280;59323;50.874;7.028;2023-12-22T07:31:51;99990.34;;;6.23;100.00
71504;BME280;59323;50.874;7.028;2023-12-22T07:34:16;99997.66;;;6.22;100.00
71504;BME280;59323;50.874;7.028;2023-12-22T07:36:43;99991.81;;;6.20;100.00
71504;BME280;59323;50.874;7.028;2023-12-22T07:39:09;100002.91;;;6.34;100.00
71504;BME280;59323;50.874;7.028;2023-12-22T07:41:36;99988.94;;;6.29;100.00
71504;BME280;59323;50.874;7.028;2023-12-22T07:44:01;99975.38;;;6.25;100.00
71504;BME280;59323;50.874;7.028;2023-12-22T07:46:27;99975.78;;;6.27;100.00
71504;BME280;59323;50.874;7.028;2023-12-22T07:48:53;99985.03;;;6.26;100.00
71504;BME280;59323;50.874;7.028;2023-12-22T07:51:20;100001.19;;;6.26;100.00
71504;BME280;59323;50.874;7.028;2023-12-22T07:53:45;99985.66;;;6.20;100.00
71504;BME280;59323;50.874;7.028;2023-12-22T07:56:11;99981.75;;;6.17;100.00
71504;BME280;59323;50.874;7.028;2023-12-22T07:58:37;99986.78;;;6.19;100.00
71504;BME280;59323;50.874;7.028;2023-12-22T08:01:03;99989.91;;;6.21;100.00
71504;BME280;59323;50.874;7.028;2023-12-22T08:03:30;99991.03;;;6.20;100.00
71504;BME280;59323;50.874;7.028;2023-12-22T08:05:59;99987.28;;;6.24;100.00
71504;BME280;59323;50.874;7.028;2023-12-22T08:08:24;100008.31;;;6.34;100.00
71504;BME280;59323;50.874;7.028;2023-12-22T08:10:50;100014.28;;;6.44;100.00
71504;BME280;59323;50.874;7.028;2023-12-22T08:13:15;99995.41;;;6.44;100.00
71504;BME280;59323;50.874;7.028;2023-12-22T08:15:52;99995.47;;;6.47;100.00
71504;BME280;59323;50.874;7.028;2023-12-22T08:18:20;99994.16;;;6.57;100.00
71504;BME280;59323;50.874;7.028;2023-12-22T08:20:46;99987.75;;;6.65;100.00
71504;BME280;59323;50.874;7.028;2023-12-22T08:23:20;99976.59;;;6.66;100.00
71504;BME280;59323;50.874;7.028;2023-12-22T08:25:46;99967.72;;;6.66;100.00
71504;BME280;59323;50.874;7.028;2023-12-22T08:28:13;99976.66;;;6.70;100.00
71504;BME280;59323;50.874;7.028;2023-12-22T08:30:38;99996.72;;;6.69;100.00
71504;BME280;59323;50.874;7.028;2023-12-22T08:33:04;99996.78;;;6.73;100.00
71504;BME280;59323;50.874;7.028;2023-12-22T08:35:29;99985.06;;;6.65;100.00
71504;BME280;59323;50.874;7.028;2023-12-22T08:37:56;99999.75;;;6.67;100.00
71504;BME280;59323;50.874;7.028;2023-12-22T08:40:22;100008.56;;;6.84;100.00
71504;BME280;59323;50.874;7.028;2023-12-22T08:42:52;100001.31;;;6.88;100.00
71504;BME280;59323;50.874;7.028;2023-12-22T08:45:20;99992.97;;;6.96;100.00
71504;BME280;59323;50.874;7.028;2023-12-22T08:47:46;99989.63;;;7.03;100.00
71504;BME280;59323;50.874;7.028;2023-12-22T08:50:11;99985.78;;;7.04;100.00
71504;BME280;59323;50.874;7.028;2023-12-22T08:52:38;99977.97;;;6.99;100.00
71504;BME280;59323;50.874;7.028;2023-12-22T08:55:04;99971.06;;;7.02;100.00
71504;BME280;59323;50.874;7.028;2023-12-22T08:57:30;99978.47;;;7.05;100.00
71504;BME280;59323;50.874;7.028;2023-12-22T08:59:57;99968.50;;;7.09;100.00
71504;BME280;59323;50.874;7.028;2023-12-22T09:02:22;99984.00;;;7.12;100.00
71504;BME280;59323;50.874;7.028;2023-12-22T09:04:47;99981.56;;;7.26;100.00
71504;BME280;59323;50.874;7.028;2023-12-22T09:07:13;99985.00;;;7.23;100.00
71504;BME280;59323;50.874;7.028;2023-12-22T09:09:38;99990.44;;;7.26;100.00
71504;BME280;59323;50.874;7.028;2023-12-22T09:12:05;99985.16;;;7.34;100.00
71504;BME280;59323;50.874;7.028;2023-12-22T09:14:31;99970.41;;;7.27;100.00
71504;BME280;59323;50.874;7.028;2023-12-22T09:16:56;99984.81;;;7.35;100.00
71504;BME280;59323;50.874;7.028;2023-12-22T09:19:22;99974.94;;;7.46;100.00
71504;BME280;59323;50.874;7.028;2023-12-22T09:21:47;99962.16;;;7.43;100.00
71504;BME280;59323;50.874;7.028;2023-12-22T09:24:12;99967.19;;;7.45;100.00
71504;BME280;59323;50.874;7.028;2023-12-22T09:26:38;99968.81;;;7.49;100.00
71504;BME280;59323;50.874;7.028;2023-12-22T09:29:03;99952.59;;;7.49;100.00
71504;BME280;59323;50.874;7.028;2023-12-22T09:31:34;99951.72;;;7.42;100.00
71504;BME280;59323;50.874;7.028;2023-12-22T09:34:03;99951.09;;;7.52;100.00
71504;BME280;59323;50.874;7.028;2023-12-22T09:36:30;99939.19;;;7.56;100.00
71504;BME280;59323;50.874;7.028;2023-12-22T09:38:56;99940.38;;;7.59;100.00
71504;BME280;59323;50.874;7.028;2023-12-22T09:41:21;99939.66;;;7.62;100.00
71504;BME280;59323;50.874;7.028;2023-12-22T09:43:49;99954.47;;;7.72;100.00
71504;BME280;59323;50.874;7.028;2023-12-22T09:46:17;99958.38;;;7.74;100.00
71504;BME280;59323;50.874;7.028;2023-12-22T09:48:45;99943.06;;;7.82;100.00
71504;BME280;59323;50.874;7.028;2023-12-22T09:51:11;99945.69;;;7.78;100.00
71504;BME280;59323;50.874;7.028;2023-12-22T09:53:39;99943.16;;;7.89;100.00
71504;BME280;59323;50.874;7.028;2023-12-22T09:56:07;99950.66;;;7.99;100.00
71504;BME280;59323;50.874;7.028;2023-12-22T09:58:34;99931.66;;;7.95;100.00
71504;BME280;59323;50.874;7.028;2023-12-22T10:01:02;99925.84;;;7.93;100.00
71504;BME280;59323;50.874;7.028;2023-12-22T10:03:30;99923.22;;;8.01;100.00
71504;BME280;59323;50.874;7.028;2023-12-22T10:05:58;99912.38;;;7.97;100.00
71504;BME280;59323;50.874;7.028;2023-12-22T10:08:24;99923.22;;;8.01;100.00
71504;BME280;59323;50.874;7.028;2023-12-22T10:10:50;99915.91;;;8.01;100.00
71504;BME280;59323;50.874;7.028;2023-12-22T10:13:17;99924.06;;;8.05;100.00
71504;BME280;59323;50.874;7.028;2023-12-22T10:15:43;99913.59;;;8.03;100.00
71504;BME280;59323;50.874;7.028;2023-12-22T10:18:13;99923.31;;;8.08;100.00
71504;BME280;59323;50.874;7.028;2023-12-22T10:20:38;99922.63;;;8.14;100.00
71504;BME280;59323;50.874;7.028;2023-12-22T10:23:04;99918.00;;;8.15;100.00
71504;BME280;59323;50.874;7.028;2023-12-22T10:25:30;99918.38;;;8.13;100.00
71504;BME280;59323;50.874;7.028;2023-12-22T10:27:55;99913.31;;;8.12;100.00
71504;BME280;59323;50.874;7.028;2023-12-22T10:30:22;99918.41;;;8.17;100.00
71504;BME280;59323;50.874;7.028;2023-12-22T10:32:50;99915.06;;;8.27;100.00
71504;BME280;59323;50.874;7.028;2023-12-22T10:35:16;99911.16;;;8.24;100.00
71504;BME280;59323;50.874;7.028;2023-12-22T10:37:42;99906.44;;;8.18;100.00
71504;BME280;59323;50.874;7.028;2023-12-22T10:40:08;99909.59;;;8.23;100.00
71504;BME280;59323;50.874;7.028;2023-12-22T10:42:35;99902.50;;;8.12;100.00
71504;BME280;59323;50.874;7.028;2023-12-22T10:45:01;99899.75;;;8.08;100.00
71504;BME280;59323;50.874;7.028;2023-12-22T10:47:28;99905.56;;;8.10;100.00
71504;BME280;59323;50.874;7.028;2023-12-22T10:49:53;99897.47;;;8.10;100.00
71504;BME280;59323;50.874;7.028;2023-12-22T10:52:19;99904.09;;;8.16;100.00
71504;BME280;59323;50.874;7.028;2023-12-22T10:54:45;99894.44;;;8.15;100.00
71504;BME280;59323;50.874;7.028;2023-12-22T10:57:11;99907.09;;;8.08;100.00
71504;BME280;59323;50.874;7.028;2023-12-22T10:59:44;99896.63;;;8.06;100.00
71504;BME280;59323;50.874;7.028;2023-12-22T11:02:15;99895.56;;;8.14;100.00
71504;BME280;59323;50.874;7.028;2023-12-22T11:05:06;99901.34;;;8.13;100.00
71504;BME280;59323;50.874;7.028;2023-12-22T11:07:33;99896.69;;;8.10;100.00
71504;BME280;59323;50.874;7.028;2023-12-22T11:10:06;99893.66;;;8.15;100.00
71504;BME280;59323;50.874;7.028;2023-12-22T11:12:34;99898.28;;;8.14;100.00
71504;BME280;59323;50.874;7.028;2023-12-22T11:15:02;99883.19;;;8.13;100.00
71504;BME280;59323;50.874;7.028;2023-12-22T11:17:28;99870.44;;;8.14;100.00
71504;BME280;59323;50.874;7.028;2023-12-22T11:19:55;99887.53;;;8.21;100.00
71504;BME280;59323;50.874;7.028;2023-12-22T11:22:22;99880.97;;;8.22;100.00
71504;BME280;59323;50.874;7.028;2023-12-22T11:24:49;99890.38;;;8.32;100.00
71504;BME280;59323;50.874;7.028;2023-12-22T11:27:19;99874.91;;;8.33;100.00
71504;BME280;59323;50.874;7.028;2023-12-22T11:29:48;99888.59;;;8.43;100.00
71504;BME280;59323;50.874;7.028;2023-12-22T11:32:18;99885.50;;;8.45;100.00
71504;BME280;59323;50.874;7.028;2023-12-22T11:34:47;99872.72;;;8.42;100.00
71504;BME280;59323;50.874;7.028;2023-12-22T11:37:15;99871.16;;;8.41;100.00
71504;BME280;59323;50.874;7.028;2023-12-22T11:39:43;99880.09;;;8.45;100.00
71504;BME280;59323;50.874;7.028;2023-12-22T11:42:17;99865.38;;;8.42;100.00
71504;BME280;59323;50.874;7.028;2023-12-22T11:44:43;99863.44;;;8.43;100.00
71504;BME280;59323;50.874;7.028;2023-12-22T11:47:10;99856.94;;;8.47;100.00
71504;BME280;59323;50.874;7.028;2023-12-22T11:49:37;99858.53;;;8.52;100.00
71504;BME280;59323;50.874;7.028;2023-12-22T11:52:16;99862.16;;;8.67;100.00
71504;BME280;59323;50.874;7.028;2023-12-22T11:54:49;99854.47;;;8.72;100.00
71504;BME280;59323;50.874;7.028;2023-12-22T11:59:56;99855.34;;;8.83;100.00
71504;BME280;59323;50.874;7.028;2023-12-22T12:02:22;99841.75;;;8.76;100.00
71504;BME280;59323;50.874;7.028;2023-12-22T12:04:48;99850.69;;;8.80;100.00
71504;BME280;59323;50.874;7.028;2023-12-22T12:07:43;99846.09;;;8.88;100.00
71504;BME280;59323;50.874;7.028;2023-12-22T12:10:10;99848.06;;;8.91;100.00
71504;BME280;59323;50.874;7.028;2023-12-22T12:12:36;99848.50;;;8.97;100.00
71504;BME280;59323;50.874;7.028;2023-12-22T12:15:10;99848.16;;;9.05;100.00
71504;BME280;59323;50.874;7.028;2023-12-22T12:17:41;99852.81;;;9.05;100.00
71504;BME280;59323;50.874;7.028;2023-12-22T12:20:07;99840.53;;;9.14;100.00
71504;BME280;59323;50.874;7.028;2023-12-22T12:22:33;99834.25;;;9.07;100.00
71504;BME280;59323;50.874;7.028;2023-12-22T12:25:07;99830.84;;;9.13;100.00
71504;BME280;59323;50.874;7.028;2023-12-22T12:27:34;99834.72;;;9.16;100.00
71504;BME280;59323;50.874;7.028;2023-12-22T12:30:14;99846.41;;;9.27;100.00
71504;BME280;59323;50.874;7.028;2023-12-22T12:32:43;99837.47;;;9.23;100.00
71504;BME280;59323;50.874;7.028;2023-12-22T12:35:12;99838.63;;;9.22;100.00
71504;BME280;59323;50.874;7.028;2023-12-22T12:37:38;99837.13;;;9.28;100.00
71504;BME280;59323;50.874;7.028;2023-12-22T12:40:11;99822.03;;;9.27;100.00
71504;BME280;59323;50.874;7.028;2023-12-22T12:42:37;99830.16;;;9.27;100.00
71504;BME280;59323;50.874;7.028;2023-12-22T12:45:07;99831.34;;;9.33;100.00
71504;BME280;59323;50.874;7.028;2023-12-22T12:47:33;99836.78;;;9.33;100.00
71504;BME280;59323;50.874;7.028;2023-12-22T12:50:00;99839.16;;;9.42;100.00
71504;BME280;59323;50.874;7.028;2023-12-22T12:52:26;99825.94;;;9.37;100.00
71504;BME280;59323;50.874;7.028;2023-12-22T12:54:51;99839.94;;;9.42;100.00
71504;BME280;59323;50.874;7.028;2023-12-22T12:57:17;99843.44;;;9.46;100.00
71504;BME280;59323;50.874;7.028;2023-12-22T12:59:50;99835.69;;;9.45;100.00
71504;BME280;59323;50.874;7.028;2023-12-22T13:02:19;99837.25;;;9.49;100.00
71504;BME280;59323;50.874;7.028;2023-12-22T13:04:46;99826.41;;;9.46;100.00
71504;BME280;59323;50.874;7.028;2023-12-22T13:07:11;99820.63;;;9.51;100.00
71504;BME280;59323;50.874;7.028;2023-12-22T13:09:40;99817.53;;;9.52;100.00
71504;BME280;59323;50.874;7.028;2023-12-22T13:12:07;99818.66;;;9.48;100.00
71504;BME280;59323;50.874;7.028;2023-12-22T13:14:33;99818.69;;;9.55;100.00
71504;BME280;59323;50.874;7.028;2023-12-22T13:16:59;99818.69;;;9.55;100.00
71504;BME280;59323;50.874;7.028;2023-12-22T13:19:25;99812.47;;;9.51;100.00
71504;BME280;59323;50.874;7.028;2023-12-22T13:21:53;99831.50;;;9.58;100.00
71504;BME280;59323;50.874;7.028;2023-12-22T13:24:20;99830.34;;;9.63;100.00
71504;BME280;59323;50.874;7.028;2023-12-22T13:26:46;99824.91;;;9.59;100.00
71504;BME280;59323;50.874;7.028;2023-12-22T13:29:14;99833.41;;;9.54;100.00
71504;BME280;59323;50.874;7.028;2023-12-22T13:31:41;99830.72;;;9.58;100.00
71504;BME280;59323;50.874;7.028;2023-12-22T13:34:13;99825.69;;;9.56;100.00
71504;BME280;59323;50.874;7.028;2023-12-22T13:36:39;99844.66;;;9.56;100.00
71504;BME280;59323;50.874;7.028;2023-12-22T13:39:07;99830.72;;;9.58;100.00
71504;BME280;59323;50.874;7.028;2023-12-22T13:41:38;99830.25;;;9.41;100.00
71504;BME280;59323;50.874;7.028;2023-12-22T13:44:05;99827.94;;;9.43;100.00
71504;BME280;59323;50.874;7.028;2023-12-22T13:46:31;99835.34;;;9.53;100.00
71504;BME280;59323;50.874;7.028;2023-12-22T13:48:57;99839.63;;;9.54;100.00
71504;BME280;59323;50.874;7.028;2023-12-22T13:51:23;99841.94;;;9.56;100.00
71504;BME280;59323;50.874;7.028;2023-12-22T13:53:51;99831.84;;;9.49;100.00
71504;BME280;59323;50.874;7.028;2023-12-22T13:56:20;99842.66;;;9.46;100.00
71504;BME280;59323;50.874;7.028;2023-12-22T13:58:46;99860.88;;;9.49;100.00
71504;BME280;59323;50.874;7.028;2023-12-22T14:01:13;99852.34;;;9.43;100.00
71504;BME280;59323;50.874;7.028;2023-12-22T14:03:40;99860.13;;;9.52;100.00
71504;BME280;59323;50.874;7.028;2023-12-22T14:06:06;99839.91;;;9.39;100.00
71504;BME280;59323;50.874;7.028;2023-12-22T14:08:35;99849.59;;;9.40;100.00
71504;BME280;59323;50.874;7.028;2023-12-22T14:11:03;99852.75;;;9.49;100.00
71504;BME280;59323;50.874;7.028;2023-12-22T14:13:29;99860.44;;;9.40;100.00
71504;BME280;59323;50.874;7.028;2023-12-22T14:15:54;99851.94;;;9.41;100.00
71504;BME280;59323;50.874;7.028;2023-12-22T14:18:20;99864.75;;;9.44;100.00
71504;BME280;59323;50.874;7.028;2023-12-22T14:20:48;99851.13;;;9.37;100.00
71504;BME280;59323;50.874;7.028;2023-12-22T14:23:13;99857.34;;;9.41;100.00
71504;BME280;59323;50.874;7.028;2023-12-22T14:25:52;99866.19;;;9.31;100.00
71504;BME280;59323;50.874;7.028;2023-12-22T14:28:17;99854.94;;;9.29;100.00
71504;BME280;59323;50.874;7.028;2023-12-22T14:30:43;99865.06;;;9.36;100.00
71504;BME280;59323;50.874;7.028;2023-12-22T14:33:09;99881.31;;;9.32;100.00
71504;BME280;59323;50.874;7.028;2023-12-22T14:35:37;99884.41;;;9.31;100.00
71504;BME280;59323;50.874;7.028;2023-12-22T14:38:02;99873.16;;;9.29;100.00
71504;BME280;59323;50.874;7.028;2023-12-22T14:40:28;99887.88;;;9.28;100.00
71504;BME280;59323;50.874;7.028;2023-12-22T14:42:53;99872.78;;;9.30;100.00
71504;BME280;59323;50.874;7.028;2023-12-22T14:45:19;99878.94;;;9.27;100.00
71504;BME280;59323;50.874;7.028;2023-12-22T14:47:44;99892.97;;;9.36;100.00
71504;BME280;59323;50.874;7.028;2023-12-22T14:50:09;99904.19;;;9.35;100.00
71504;BME280;59323;50.874;7.028;2023-12-22T14:52:35;99897.94;;;9.27;100.00
71504;BME280;59323;50.874;7.028;2023-12-22T14:55:03;99880.50;;;9.28;100.00
71504;BME280;59323;50.874;7.028;2023-12-22T14:57:31;99895.22;;;9.27;100.00
71504;BME280;59323;50.874;7.028;2023-12-22T14:59:58;99906.13;;;9.34;100.00
71504;BME280;59323;50.874;7.028;2023-12-22T15:02:24;99910.75;;;9.34;100.00
71504;BME280;59323;50.874;7.028;2023-12-22T15:04:49;99908.81;;;9.34;100.00
71504;BME280;59323;50.874;7.028;2023-12-22T15:07:18;99910.41;;;9.39;100.00
71504;BME280;59323;50.874;7.028;2023-12-22T15:09:47;99907.63;;;9.28;100.00
71504;BME280;59323;50.874;7.028;2023-12-22T15:12:15;99895.19;;;9.24;100.00
71504;BME280;59323;50.874;7.028;2023-12-22T15:14:44;99916.81;;;9.16;100.00
71504;BME280;59323;50.874;7.028;2023-12-22T15:17:10;99901.34;;;9.17;100.00
71504;BME280;59323;50.874;7.028;2023-12-22T15:19:42;99920.00;;;9.26;100.00
71504;BME280;59323;50.874;7.028;2023-12-22T15:22:11;99911.00;;;9.14;100.00
71504;BME280;59323;50.874;7.028;2023-12-22T15:24:37;99910.59;;;9.12;100.00
71504;BME280;59323;50.874;7.028;2023-12-22T15:27:06;99921.44;;;9.12;100.00
71504;BME280;59323;50.874;7.028;2023-12-22T15:29:32;99939.31;;;9.20;100.00
71504;BME280;59323;50.874;7.028;2023-12-22T15:31:58;99929.28;;;9.25;100.00
71504;BME280;59323;50.874;7.028;2023-12-22T15:34:25;99928.44;;;9.17;100.00
71504;BME280;59323;50.874;7.028;2023-12-22T15:36:51;99921.38;;;9.09;100.00
71504;BME280;59323;50.874;7.028;2023-12-22T15:39:17;99934.13;;;9.08;100.00
71504;BME280;59323;50.874;7.028;2023-12-22T15:41:47;99947.31;;;9.10;100.00
71504;BME280;59323;50.874;7.028;2023-12-22T15:44:13;99937.31;;;9.14;100.00
71504;BME280;59323;50.874;7.028;2023-12-22T15:46:39;99916.69;;;9.06;100.00
71504;BME280;59323;50.874;7.028;2023-12-22T15:49:04;99942.25;;;9.05;100.00
71504;BME280;59323;50.874;7.028;2023-12-22T15:51:30;99946.50;;;9.06;100.00
71504;BME280;59323;50.874;7.028;2023-12-22T15:53:55;99956.97;;;9.07;100.00
71504;BME280;59323;50.874;7.028;2023-12-22T15:56:21;99960.88;;;9.10;100.00
71504;BME280;59323;50.874;7.028;2023-12-22T15:58:46;99959.66;;;9.04;100.00
71504;BME280;59323;50.874;7.028;2023-12-22T16:01:12;99948.75;;;8.97;100.00
71504;BME280;59323;50.874;7.028;2023-12-22T16:03:42;99966.19;;;8.99;100.00
71504;BME280;59323;50.874;7.028;2023-12-22T16:06:12;99959.63;;;9.00;100.00
71504;BME280;59323;50.874;7.028;2023-12-22T16:08:37;99965.88;;;9.08;100.00
71504;BME280;59323;50.874;7.028;2023-12-22T16:11:03;99937.56;;;9.02;100.00
71504;BME280;59323;50.874;7.028;2023-12-22T16:13:29;99946.50;;;9.06;100.00
71504;BME280;59323;50.874;7.028;2023-12-22T16:15:56;99948.06;;;9.07;100.00
71504;BME280;59323;50.874;7.028;2023-12-22T16:18:25;99947.63;;;9.01;100.00
71504;BME280;59323;50.874;7.028;2023-12-22T16:20:51;99940.69;;;9.04;100.00
71504;BME280;59323;50.874;7.028;2023-12-22T16:23:16;99965.81;;;9.01;100.00
71504;BME280;59323;50.874;7.028;2023-12-22T16:25:48;99958.84;;;9.00;100.00
71504;BME280;59323;50.874;7.028;2023-12-22T16:28:16;99953.38;;;8.96;100.00
71504;BME280;59323;50.874;7.028;2023-12-22T16:30:42;99954.94;;;8.97;100.00
71504;BME280;59323;50.874;7.028;2023-12-22T16:33:20;99958.84;;;9.00;100.00
71504;BME280;59323;50.874;7.028;2023-12-22T16:35:46;99961.09;;;8.94;100.00
71504;BME280;59323;50.874;7.028;2023-12-22T16:38:17;99939.28;;;8.80;100.00
71504;BME280;59323;50.874;7.028;2023-12-22T16:40:45;99949.81;;;8.88;100.00
71504;BME280;59323;50.874;7.028;2023-12-22T16:43:11;99947.38;;;8.76;100.00
71504;BME280;59323;50.874;7.028;2023-12-22T16:45:39;99955.22;;;8.85;100.00
71504;BME280;59323;50.874;7.028;2023-12-22T16:48:05;99967.22;;;8.87;100.00
71504;BME280;59323;50.874;7.028;2023-12-22T16:50:31;99977.66;;;8.85;100.00
71504;BME280;59323;50.874;7.028;2023-12-22T16:52:57;99976.06;;;8.81;100.00
71504;BME280;59323;50.874;7.028;2023-12-22T16:55:22;99967.59;;;8.86;100.00
71504;BME280;59323;50.874;7.028;2023-12-22T16:57:48;99973.47;;;8.92;100.00
71504;BME280;59323;50.874;7.028;2023-12-22T17:00:13;99982.31;;;8.85;100.00
71504;BME280;59323;50.874;7.028;2023-12-22T17:02:40;99975.75;;;8.89;100.00
71504;BME280;59323;50.874;7.028;2023-12-22T17:05:05;99980.38;;;8.85;100.00
71504;BME280;59323;50.874;7.028;2023-12-22T17:07:31;99994.00;;;8.93;100.00
71504;BME280;59323;50.874;7.028;2023-12-22T17:09:56;99993.25;;;8.96;100.00
71504;BME280;59323;50.874;7.028;2023-12-22T17:12:22;99987.50;;;9.01;100.00
71504;BME280;59323;50.874;7.028;2023-12-22T17:14:47;100002.59;;;9.02;100.00
71504;BME280;59323;50.874;7.028;2023-12-22T17:17:13;99999.53;;;9.03;100.00
71504;BME280;59323;50.874;7.028;2023-12-22T17:19:40;99987.47;;;8.97;100.00
71504;BME280;59323;50.874;7.028;2023-12-22T17:22:05;99984.00;;;9.00;100.00
71504;BME280;59323;50.874;7.028;2023-12-22T17:24:32;99987.50;;;9.01;100.00
71504;BME280;59323;50.874;7.028;2023-12-22T17:26:58;100000.66;;;9.02;100.00
71504;BME280;59323;50.874;7.028;2023-12-22T17:29:23;99990.94;;;8.98;100.00
71504;BME280;59323;50.874;7.028;2023-12-22T17:31:49;99996.00;;;8.99;100.00
71504;BME280;59323;50.874;7.028;2023-12-22T17:34:22;99993.66;;;8.98;100.00
71504;BME280;59323;50.874;7.028;2023-12-22T17:36:48;99991.69;;;8.95;100.00
71504;BME280;59323;50.874;7.028;2023-12-22T17:39:13;99980.03;;;8.90;100.00
71504;BME280;59323;50.874;7.028;2023-12-22T17:41:39;99996.38;;;8.98;100.00
71504;BME280;59323;50.874;7.028;2023-12-22T17:44:04;99987.81;;;8.96;100.00
71504;BME280;59323;50.874;7.028;2023-12-22T17:46:29;100003.00;;;9.04;100.00
71504;BME280;59323;50.874;7.028;2023-12-22T17:48:55;100006.50;;;9.04;100.00
71504;BME280;59323;50.874;7.028;2023-12-22T17:51:21;99996.78;;;9.00;100.00
71504;BME280;59323;50.874;7.028;2023-12-22T17:53:46;100004.16;;;9.03;100.00
71504;BME280;59323;50.874;7.028;2023-12-22T17:56:12;100006.44;;;8.97;100.00
71504;BME280;59323;50.874;7.028;2023-12-22T17:58:43;100019.28;;;9.04;100.00
71504;BME280;59323;50.874;7.028;2023-12-22T18:01:08;100020.03;;;9.04;100.00
71504;BME280;59323;50.874;7.028;2023-12-22T18:03:34;100016.53;;;9.00;100.00
71504;BME280;59323;50.874;7.028;2023-12-22T18:05:59;100023.53;;;9.05;100.00
71504;BME280;59323;50.874;7.028;2023-12-22T18:08:24;100031.34;;;9.10;100.00
71504;BME280;59323;50.874;7.028;2023-12-22T18:10:50;100039.47;;;9.10;100.00
71504;BME280;59323;50.874;7.028;2023-12-22T18:13:15;100042.97;;;9.10;100.00
71504;BME280;59323;50.874;7.028;2023-12-22T18:15:41;100017.00;;;9.09;100.00
71504;BME280;59323;50.874;7.028;2023-12-22T18:18:06;100042.69;;;9.19;100.00
71504;BME280;59323;50.874;7.028;2023-12-22T18:20:32;100041.88;;;9.15;100.00
71504;BME280;59323;50.874;7.028;2023-12-22T18:22:57;100041.19;;;9.25;100.00
71504;BME280;59323;50.874;7.028;2023-12-22T18:25:24;100033.00;;;9.18;100.00
71504;BME280;59323;50.874;7.028;2023-12-22T18:27:49;100045.00;;;9.17;100.00
71504;BME280;59323;50.874;7.028;2023-12-22T18:30:15;100050.84;;;9.23;100.00
71504;BME280;59323;50.874;7.028;2023-12-22T18:32:40;100056.28;;;9.23;100.00
71504;BME280;59323;50.874;7.028;2023-12-22T18:35:06;100043.13;;;9.25;100.00
71504;BME280;59323;50.874;7.028;2023-12-22T18:37:31;100048.56;;;9.25;100.00
71504;BME280;59323;50.874;7.028;2023-12-22T18:39:57;100052.38;;;9.20;100.00
71504;BME280;59323;50.874;7.028;2023-12-22T18:42:22;100057.72;;;9.13;100.00
71504;BME280;59323;50.874;7.028;2023-12-22T18:44:48;100042.09;;;9.03;100.00
71504;BME280;59323;50.874;7.028;2023-12-22T18:47:13;100067.47;;;9.17;100.00
71504;BME280;59323;50.874;7.028;2023-12-22T18:49:39;100055.84;;;9.17;100.00
71504;BME280;59323;50.874;7.028;2023-12-22T18:52:04;100065.13;;;9.16;100.00
71504;BME280;59323;50.874;7.028;2023-12-22T18:54:31;100070.16;;;9.17;100.00
71504;BME280;59323;50.874;7.028;2023-12-22T18:56:56;100063.97;;;9.17;100.00
71504;BME280;59323;50.874;7.028;2023-12-22T18:59:22;100070.13;;;9.14;100.00
71504;BME280;59323;50.874;7.028;2023-12-22T19:01:47;100074.78;;;9.13;100.00
71504;BME280;59323;50.874;7.028;2023-12-22T19:04:13;100082.53;;;9.15;100.00
71504;BME280;59323;50.874;7.028;2023-12-22T19:06:38;100065.56;;;9.21;100.00
71504;BME280;59323;50.874;7.028;2023-12-22T19:09:04;100067.88;;;9.19;100.00
71504;BME280;59323;50.874;7.028;2023-12-22T19:11:29;100056.16;;;9.12;100.00
71504;BME280;59323;50.874;7.028;2023-12-22T19:13:55;100070.94;;;9.18;100.00
71504;BME280;59323;50.874;7.028;2023-12-22T19:16:21;100062.25;;;9.05;100.00
71504;BME280;59323;50.874;7.028;2023-12-22T19:18:46;100061.06;;;9.03;100.00
71504;BME280;59323;50.874;7.028;2023-12-22T19:21:13;100084.06;;;9.12;100.00
71504;BME280;59323;50.874;7.028;2023-12-22T19:23:40;100061.59;;;9.12;100.00
71504;BME280;59323;50.874;7.028;2023-12-22T19:26:06;100080.97;;;9.14;100.00
71504;BME280;59323;50.874;7.028;2023-12-22T19:28:31;100086.81;;;9.16;100.00
71504;BME280;59323;50.874;7.028;2023-12-22T19:30:57;100082.56;;;9.18;100.00
71504;BME280;59323;50.874;7.028;2023-12-22T19:33:22;100091.09;;;9.20;100.00
71504;BME280;59323;50.874;7.028;2023-12-22T19:35:50;100102.88;;;9.35;100.00